Time;durP1;ratioP1;P1;durP2;ratioP2;P2;SDS_P1;SDS_P2;PMS_P1;PMS_P2;Temp;Humidity;BMP_temperature;BMP_pressure;BME280_temperature;BME280_humidity;BME280_pressure;Samples;Min_cycle;Max_cycle;Signal;HPM_P1;HPM_P2
2022/03/04 00:01:54;;;;;;;29.70;16.70;;;;;;;4.11;34.99;95285.81;4952223;28;20038;-70
2022/03/04 00:04:20;;;;;;;30.08;17.90;;;;;;;4.18;34.72;95296.88;4952380;28;20051;-70
2022/03/04 00:06:46;;;;;;;34.58;17.65;;;;;;;4.20;34.88;95301.91;4952350;28;20019;-70
2022/03/04 00:09:11;;;;;;;34.03;17.52;;;;;;;3.96;35.43;95293.66;4951923;28;20070;-70
2022/03/04 00:11:37;;;;;;;29.75;17.40;;;;;;;4.04;35.39;95279.19;4951939;28;20067;-70
2022/03/04 00:14:02;;;;;;;34.60;18.52;;;;;;;4.27;35.21;95322.69;4950422;28;20023;-70
2022/03/04 00:16:28;;;;;;;38.00;18.30;;;;;;;4.23;34.97;95308.47;4951916;28;20069;-70
2022/03/04 00:19:09;;;;;;;35.35;18.00;;;;;;;4.28;35.48;95313.75;4951840;28;20059;-70
2022/03/04 00:21:37;;;;;;;32.47;17.88;;;;;;;4.21;35.11;95307.94;4951937;28;20094;-70
2022/03/04 00:24:05;;;;;;;37.90;18.45;;;;;;;4.09;35.88;95308.16;4952191;28;20477;-70
2022/03/04 00:26:31;;;;;;;39.13;18.35;;;;;;;4.11;35.62;95306.06;4953152;29;20027;-70
2022/03/04 00:28:57;;;;;;;31.73;16.73;;;;;;;4.26;35.51;95319.28;4954770;28;20440;-70
2022/03/04 00:31:23;;;;;;;34.30;16.95;;;;;;;3.89;35.77;95266.78;4955036;28;20042;-71
2022/03/04 00:33:48;;;;;;;31.40;17.58;;;;;;;4.22;35.25;95305.03;4954394;29;20106;-70
2022/03/04 00:36:14;;;;;;;37.25;18.52;;;;;;;4.23;35.19;95303.19;4955212;29;20110;-70
2022/03/04 00:38:39;;;;;;;30.38;17.70;;;;;;;4.07;35.49;95305.78;4954934;28;20027;-71
2022/03/04 00:41:05;;;;;;;29.45;17.38;;;;;;;4.06;35.99;95309.47;4955151;28;20042;-71
2022/03/04 00:43:30;;;;;;;26.95;16.52;;;;;;;4.14;36.13;95324.75;4954627;29;20032;-71
2022/03/04 00:45:55;;;;;;;33.30;18.10;;;;;;;3.99;36.50;95322.06;4954963;28;20024;-70
2022/03/04 00:48:21;;;;;;;34.15;17.75;;;;;;;3.88;36.20;95310.72;4955049;29;20027;-70
2022/03/04 00:50:46;;;;;;;32.33;18.55;;;;;;;3.62;36.06;95272.97;4953505;28;20443;-70
2022/03/04 00:53:11;;;;;;;32.65;17.80;;;;;;;3.65;36.79;95301.41;4954949;28;20051;-70
2022/03/04 00:55:38;;;;;;;35.22;18.58;;;;;;;3.19;37.43;95252.25;4954936;28;20039;-72
2022/03/04 00:58:07;;;;;;;28.80;17.90;;;;;;;3.59;37.50;95318.22;4954654;28;20385;-69
2022/03/04 01:00:34;;;;;;;32.85;18.42;;;;;;;3.37;37.73;95314.91;4954011;28;20404;-71
2022/03/04 01:03:01;;;;;;;31.75;18.17;;;;;;;3.31;38.05;95300.97;4954977;28;20531;-69
2022/03/04 01:05:26;;;;;;;31.63;17.70;;;;;;;3.01;38.09;95262.13;4953505;29;20062;-70
2022/03/04 01:07:51;;;;;;;31.30;17.33;;;;;;;2.88;39.55;95309.06;4954764;29;20059;-71
2022/03/04 01:10:17;;;;;;;28.75;17.55;;;;;;;3.27;38.26;95291.97;4952971;28;20146;-70
2022/03/04 01:12:42;;;;;;;37.45;18.85;;;;;;;3.33;38.19;95317.28;4954205;29;20027;-72
2022/03/04 01:15:09;;;;;;;32.45;18.08;;;;;;;3.34;38.30;95294.41;4953121;29;20027;-70
2022/03/04 01:17:35;;;;;;;32.95;18.48;;;;;;;3.51;37.78;95307.38;4954487;28;20035;-70
2022/03/04 01:20:02;;;;;;;33.95;18.20;;;;;;;3.28;38.14;95271.78;4954085;28;20042;-70
2022/03/04 01:22:27;;;;;;;30.35;17.73;;;;;;;3.53;37.98;95314.00;4954310;28;20480;-70
2022/03/04 01:24:53;;;;;;;26.83;17.98;;;;;;;3.09;37.97;95260.88;4954429;28;20034;-71
2022/03/04 01:27:19;;;;;;;35.00;17.65;;;;;;;3.38;37.92;95262.09;4954676;28;20023;-71
2022/03/04 01:29:44;;;;;;;30.50;17.48;;;;;;;3.63;37.50;95279.84;4953187;28;20114;-70
2022/03/04 01:32:10;;;;;;;33.80;18.98;;;;;;;3.68;37.41;95301.94;4952576;28;20019;-70
2022/03/04 01:34:35;;;;;;;31.92;18.13;;;;;;;3.53;37.26;95263.19;4953018;29;20031;-70
2022/03/04 01:37:00;;;;;;;30.90;17.77;;;;;;;3.70;37.20;95286.72;4952243;28;20039;-71
2022/03/04 01:39:26;;;;;;;36.05;17.70;;;;;;;3.67;37.00;95285.38;4952490;28;20692;-71
2022/03/04 01:41:51;;;;;;;33.30;17.50;;;;;;;3.69;37.31;95293.03;4954400;28;20046;-70
2022/03/04 01:44:17;;;;;;;33.75;18.10;;;;;;;3.60;37.31;95282.97;4954083;28;20108;-69
2022/03/04 01:46:42;;;;;;;32.83;18.30;;;;;;;3.47;37.69;95262.38;4953973;28;20102;-70
2022/03/04 01:49:07;;;;;;;36.55;19.20;;;;;;;3.54;37.64;95272.69;4952320;28;20037;-70
2022/03/04 01:51:33;;;;;;;30.00;17.55;;;;;;;3.43;37.29;95255.25;4952412;29;20063;-70
2022/03/04 01:53:58;;;;;;;34.10;18.35;;;;;;;3.45;37.39;95261.06;4952589;29;20074;-70
2022/03/04 01:56:24;;;;;;;34.08;18.23;;;;;;;3.62;36.93;95282.72;4953796;28;20043;-70
2022/03/04 01:58:50;;;;;;;31.15;18.05;;;;;;;3.24;37.36;95223.38;4953232;28;20031;-70
2022/03/04 02:01:15;;;;;;;31.20;18.52;;;;;;;3.17;37.42;95220.16;4953363;28;20030;-70
2022/03/04 02:03:42;;;;;;;31.20;17.20;;;;;;;3.62;37.22;95283.50;4953688;28;20676;-70
2022/03/04 02:06:07;;;;;;;32.67;17.83;;;;;;;3.39;37.08;95262.88;4953767;28;20027;-71
2022/03/04 02:08:32;;;;;;;36.65;18.33;;;;;;;3.32;36.98;95243.91;4952292;28;20727;-70
2022/03/04 02:10:58;;;;;;;27.00;17.10;;;;;;;3.52;37.35;95277.41;4952235;28;20085;-72
2022/03/04 02:13:23;;;;;;;29.45;17.25;;;;;;;3.56;37.19;95283.75;4952099;29;20499;-70
2022/03/04 02:15:49;;;;;;;33.30;17.55;;;;;;;3.54;37.04;95286.63;4952537;29;20031;-69
2022/03/04 02:18:17;;;;;;;31.58;18.73;;;;;;;3.50;37.22;95279.50;4953517;28;20396;-71
2022/03/04 02:20:46;;;;;;;32.33;17.88;;;;;;;3.51;37.34;95279.25;4953317;28;20027;-72
2022/03/04 02:23:12;;;;;;;37.53;18.08;;;;;;;3.49;37.48;95289.25;4952242;29;20511;-70
2022/03/04 02:25:40;;;;;;;31.90;18.40;;;;;;;3.11;37.27;95229.88;4953382;28;20114;-70
2022/03/04 02:28:06;;;;;;;32.85;16.77;;;;;;;3.27;37.83;95257.03;4952962;28;20038;-70
2022/03/04 02:30:32;;;;;;;32.95;17.95;;;;;;;3.29;37.17;95254.94;4951455;29;20031;-72
2022/03/04 02:32:57;;;;;;;30.58;16.80;;;;;;;3.26;37.20;95256.22;4953311;28;20041;-72
2022/03/04 02:35:23;;;;;;;32.92;17.90;;;;;;;3.31;37.07;95264.16;4953371;28;20098;-71
2022/03/04 02:37:48;;;;;;;33.95;18.52;;;;;;;3.35;37.67;95272.31;4952060;29;20027;-71
2022/03/04 02:40:14;;;;;;;29.63;16.80;;;;;;;3.20;37.56;95249.38;4951196;28;20369;-71
2022/03/04 02:42:39;;;;;;;30.98;17.40;;;;;;;3.36;37.80;95269.44;4951734;29;20618;-70
2022/03/04 02:45:05;;;;;;;36.40;18.23;;;;;;;3.24;37.62;95250.44;4952566;29;20061;-71
2022/03/04 02:47:31;;;;;;;32.45;17.25;;;;;;;3.29;38.26;95247.06;4951091;28;20066;-69
2022/03/04 02:49:56;;;;;;;31.17;17.70;;;;;;;3.03;38.26;95218.00;4952333;28;20086;-71
2022/03/04 02:52:21;;;;;;;30.17;17.35;;;;;;;3.09;38.74;95224.09;4952514;28;20070;-69
2022/03/04 02:54:47;;;;;;;28.52;18.02;;;;;;;3.01;38.60;95235.06;4953134;28;20038;-69
2022/03/04 02:57:12;;;;;;;29.30;16.60;;;;;;;2.62;41.12;95240.59;4951638;29;20053;-70
2022/03/04 02:59:37;;;;;;;28.45;17.25;;;;;;;2.68;40.95;95249.28;4952322;28;20484;-70
2022/03/04 03:02:03;;;;;;;32.75;17.80;;;;;;;2.67;40.59;95231.97;4952850;29;20027;-70
2022/03/04 03:04:29;;;;;;;40.00;18.15;;;;;;;2.59;40.40;95233.19;4952768;28;20019;-70
2022/03/04 03:06:54;;;;;;;35.60;18.88;;;;;;;2.65;40.55;95255.03;4953000;28;20495;-70
2022/03/04 03:09:19;;;;;;;34.58;17.13;;;;;;;2.55;40.92;95253.91;4952583;28;20065;-70
2022/03/04 03:11:45;;;;;;;29.77;17.38;;;;;;;2.32;40.81;95214.88;4951376;28;20488;-70
2022/03/04 03:14:10;;;;;;;37.00;17.98;;;;;;;2.47;41.14;95232.59;4952305;28;20038;-70
2022/03/04 03:16:36;;;;;;;31.75;17.65;;;;;;;2.08;40.71;95186.31;4951186;28;20591;-70
2022/03/04 03:19:01;;;;;;;31.77;17.08;;;;;;;2.41;41.47;95258.00;4951043;28;20027;-72
2022/03/04 03:21:26;;;;;;;32.97;17.95;;;;;;;1.96;42.26;95222.41;4952605;28;20027;-70
2022/03/04 03:23:52;;;;;;;32.05;15.85;;;;;;;1.92;43.22;95244.94;4951402;29;20046;-70
2022/03/04 03:26:17;;;;;;;32.08;16.83;;;;;;;2.02;42.73;95233.75;4952634;28;20404;-69
2022/03/04 03:28:43;;;;;;;33.50;16.58;;;;;;;2.00;42.42;95228.75;4951808;28;20058;-70
2022/03/04 03:31:08;;;;;;;27.63;17.10;;;;;;;2.12;42.02;95257.47;4950909;29;20027;-70
2022/03/04 03:33:36;;;;;;;28.15;16.40;;;;;;;2.05;42.10;95244.53;4952635;28;20035;-70
2022/03/04 03:36:02;;;;;;;31.80;16.98;;;;;;;1.98;42.18;95238.69;4951120;29;20024;-71
2022/03/04 03:38:27;;;;;;;31.33;17.02;;;;;;;2.04;42.28;95273.63;4952207;28;20029;-70
2022/03/04 03:40:52;;;;;;;31.30;17.42;;;;;;;1.98;42.33;95253.63;4952368;28;20027;-70
2022/03/04 03:43:18;;;;;;;27.92;16.90;;;;;;;1.99;42.97;95273.59;4952614;28;20038;-70
2022/03/04 03:45:43;;;;;;;31.80;16.75;;;;;;;1.56;43.37;95218.31;4952014;28;20118;-70
2022/03/04 03:48:10;;;;;;;31.65;17.05;;;;;;;1.98;43.44;95274.63;4952345;28;20027;-70
2022/03/04 03:50:36;;;;;;;30.30;16.05;;;;;;;2.05;42.74;95297.03;4952116;28;20058;-69
2022/03/04 03:53:02;;;;;;;28.20;16.00;;;;;;;1.68;43.54;95239.16;4950726;29;20487;-70
2022/03/04 03:55:27;;;;;;;31.17;16.95;;;;;;;2.02;43.39;95267.84;4950642;29;20032;-70
2022/03/04 03:57:53;;;;;;;31.88;16.52;;;;;;;2.00;43.09;95262.06;4951317;28;20066;-70
2022/03/04 04:00:18;;;;;;;28.95;16.60;;;;;;;1.97;43.22;95263.34;4953625;28;20035;-71
2022/03/04 04:02:43;;;;;;;32.03;17.13;;;;;;;1.54;44.59;95269.41;4955669;28;20042;-72
2022/03/04 04:05:12;;;;;;;26.45;16.75;;;;;;;1.49;44.60;95266.72;4955898;29;20035;-69
2022/03/04 04:07:38;;;;;;;31.90;17.52;;;;;;;1.56;43.96;95256.84;4955742;28;20035;-69
2022/03/04 04:10:04;;;;;;;27.35;16.60;;;;;;;1.64;43.75;95271.34;4954134;28;20035;-70
2022/03/04 04:12:29;;;;;;;27.42;16.25;;;;;;;1.52;43.67;95251.28;4955844;28;20106;-71
2022/03/04 04:14:54;;;;;;;33.38;17.08;;;;;;;1.64;44.01;95285.28;4955437;29;20031;-70
2022/03/04 04:17:20;;;;;;;33.92;17.67;;;;;;;1.65;43.86;95288.69;4955542;28;20035;-70
2022/03/04 04:19:46;;;;;;;31.17;16.35;;;;;;;1.59;44.08;95279.97;4955438;28;20093;-70
2022/03/04 04:22:11;;;;;;;33.05;17.05;;;;;;;1.51;44.03;95273.31;4955713;28;20059;-70
2022/03/04 04:24:36;;;;;;;32.50;17.27;;;;;;;1.59;44.05;95284.38;4954479;29;20077;-70
2022/03/04 04:27:02;;;;;;;35.90;17.20;;;;;;;1.52;44.25;95279.34;4955558;28;20477;-70
2022/03/04 04:29:27;;;;;;;33.47;16.85;;;;;;;1.36;44.68;95282.81;4954831;28;20035;-70
2022/03/04 04:31:53;;;;;;;28.88;16.15;;;;;;;1.46;44.92;95293.41;4955217;29;20461;-70
2022/03/04 04:34:18;;;;;;;30.02;15.88;;;;;;;1.27;44.56;95267.47;4954916;29;20038;-70
2022/03/04 04:36:44;;;;;;;28.10;16.23;;;;;;;1.61;44.61;95316.41;4955929;28;20528;-70
2022/03/04 04:39:09;;;;;;;29.58;15.07;;;;;;;0.90;46.29;95295.25;4955304;28;20039;-71
2022/03/04 04:41:35;;;;;;;27.60;16.13;;;;;;;0.54;47.42;95296.50;4955888;28;20059;-70
2022/03/04 04:44:00;;;;;;;29.23;15.95;;;;;;;0.60;47.66;95301.59;4955704;28;20102;-71
2022/03/04 04:46:26;;;;;;;32.15;16.48;;;;;;;0.24;47.82;95266.19;4955355;28;20541;-71
2022/03/04 04:48:51;;;;;;;31.88;16.88;;;;;;;0.48;47.47;95282.56;4955112;28;20102;-71
2022/03/04 04:51:17;;;;;;;29.98;17.90;;;;;;;0.99;46.50;95315.56;4955488;28;20031;-70
2022/03/04 04:53:43;;;;;;;33.60;17.88;;;;;;;0.81;47.11;95322.84;4955552;29;20034;-71
2022/03/04 04:56:09;;;;;;;28.60;17.30;;;;;;;0.88;46.77;95328.75;4955825;29;20428;-70
2022/03/04 04:58:35;;;;;;;31.67;17.27;;;;;;;0.66;47.07;95305.06;4955489;28;20031;-70
2022/03/04 05:01:00;;;;;;;30.48;16.90;;;;;;;0.64;46.35;95296.69;4954528;28;20050;-70
2022/03/04 05:03:27;;;;;;;30.00;17.02;;;;;;;0.33;46.43;95267.38;4954925;29;20027;-70
2022/03/04 05:05:56;;;;;;;35.45;18.48;;;;;;;0.26;46.83;95269.38;4955132;28;20023;-71
2022/03/04 05:08:24;;;;;;;35.95;18.83;;;;;;;0.61;46.92;95333.78;4954804;28;20524;-72
2022/03/04 05:10:50;;;;;;;35.22;18.20;;;;;;;0.38;46.74;95277.16;4953789;28;20380;-70
2022/03/04 05:13:15;;;;;;;39.72;17.85;;;;;;;-0.23;48.37;95279.47;4953654;29;20023;-70
2022/03/04 05:15:41;;;;;;;37.97;19.48;;;;;;;0.09;47.43;95289.44;4954077;28;20101;-70
2022/03/04 05:18:08;;;;;;;36.53;19.67;;;;;;;0.57;47.29;95343.16;4937344;29;20024;-70
2022/03/04 05:20:33;;;;;;;31.42;18.00;;;;;;;0.95;46.26;95332.00;4954183;28;20388;-71
2022/03/04 05:22:59;;;;;;;33.03;19.05;;;;;;;0.80;45.73;95303.75;4954702;28;20027;-70
2022/03/04 05:25:24;;;;;;;34.10;18.20;;;;;;;0.92;45.55;95308.88;4954536;28;20102;-70
2022/03/04 05:27:50;;;;;;;33.75;18.80;;;;;;;0.86;45.39;95284.44;4953213;28;20063;-71
2022/03/04 05:30:15;;;;;;;36.85;19.73;;;;;;;1.24;45.17;95335.31;4953556;28;20476;-70
2022/03/04 05:32:41;;;;;;;33.10;19.10;;;;;;;1.19;45.50;95351.75;4952709;29;20043;-70
2022/03/04 05:35:07;;;;;;;38.60;20.33;;;;;;;1.07;45.47;95342.38;4954104;28;20027;-71
2022/03/04 05:37:33;;;;;;;42.03;19.38;;;;;;;0.76;45.36;95307.84;4954090;28;20054;-71
2022/03/04 05:39:59;;;;;;;54.08;21.77;;;;;;;0.76;45.60;95310.47;4952652;29;20484;-71
2022/03/04 05:42:24;;;;;;;44.75;19.85;;;;;;;0.53;45.99;95295.72;4953955;28;20024;-71
2022/03/04 05:44:50;;;;;;;43.28;19.95;;;;;;;0.65;45.43;95282.56;4953700;28;20038;-70
2022/03/04 05:47:15;;;;;;;37.03;19.48;;;;;;;0.70;45.87;95317.47;4954012;28;20031;-71
2022/03/04 05:49:41;;;;;;;40.95;19.60;;;;;;;0.81;45.45;95317.63;4953612;28;20027;-71
2022/03/04 05:52:06;;;;;;;37.70;19.02;;;;;;;1.14;45.10;95362.16;4953784;29;20035;-70
2022/03/04 05:54:32;;;;;;;39.35;20.25;;;;;;;0.95;45.19;95330.16;4953997;28;20035;-71
2022/03/04 05:56:57;;;;;;;46.42;21.80;;;;;;;0.99;45.38;95373.19;4953826;28;20097;-70
2022/03/04 05:59:23;;;;;;;36.30;19.23;;;;;;;0.65;46.13;95361.09;4953190;28;20408;-71
2022/03/04 06:01:48;;;;;;;35.45;18.40;;;;;;;0.42;46.26;95335.84;4953514;28;20031;-70
2022/03/04 06:04:14;;;;;;;42.08;19.70;;;;;;;1.16;45.38;95375.81;4952348;29;20030;-70
2022/03/04 06:06:40;;;;;;;48.72;20.40;;;;;;;1.23;44.80;95357.31;4952450;29;20468;-70
2022/03/04 06:09:05;;;;;;;51.42;21.08;;;;;;;1.48;44.69;95385.69;4953545;28;20031;-70
2022/03/04 06:11:31;;;;;;;41.10;19.55;;;;;;;1.55;44.49;95375.84;4953502;28;20031;-70
2022/03/04 06:13:56;;;;;;;43.88;20.40;;;;;;;1.49;44.42;95359.28;4953505;29;20050;-71
2022/03/04 06:16:22;;;;;;;39.80;20.27;;;;;;;1.62;44.49;95373.06;4953028;28;20027;-69
2022/03/04 06:18:47;;;;;;;38.22;20.52;;;;;;;1.45;44.36;95344.25;4952743;28;20031;-70
2022/03/04 06:21:13;;;;;;;37.33;20.27;;;;;;;1.56;44.60;95362.50;4953116;28;20069;-70
2022/03/04 06:23:39;;;;;;;41.45;19.67;;;;;;;1.36;44.54;95327.34;4949250;28;20031;-72
2022/03/04 06:26:04;;;;;;;37.45;19.38;;;;;;;1.81;44.45;95383.03;4953222;28;20034;-70
2022/03/04 06:28:30;;;;;;;41.95;19.40;;;;;;;1.92;44.43;95386.56;4952713;28;20027;-70
2022/03/04 06:30:56;;;;;;;38.80;19.08;;;;;;;2.01;44.41;95385.13;4952084;28;20035;-70
2022/03/04 06:33:30;;;;;;;41.65;18.65;;;;;;;1.91;44.27;95378.97;4952878;28;20042;-70
2022/03/04 06:35:58;;;;;;;31.58;17.83;;;;;;;2.06;44.50;95398.31;4951257;29;20543;-70
2022/03/04 06:38:24;;;;;;;33.00;18.83;;;;;;;2.13;44.38;95410.44;4952627;28;20038;-70
2022/03/04 06:40:50;;;;;;;40.72;17.85;;;;;;;2.15;44.44;95403.94;4952795;28;20455;-70
2022/03/04 06:43:16;;;;;;;40.85;18.63;;;;;;;2.25;44.65;95411.09;4952940;28;20035;-70
2022/03/04 06:45:43;;;;;;;33.15;17.67;;;;;;;2.31;44.01;95410.16;4952390;28;20031;-70
2022/03/04 06:48:09;;;;;;;38.53;18.55;;;;;;;2.27;44.00;95399.34;4952244;28;20035;-70
2022/03/04 06:50:34;;;;;;;35.50;18.23;;;;;;;2.38;44.12;95409.97;4952269;28;20039;-72
2022/03/04 06:53:01;;;;;;;41.13;19.65;;;;;;;2.51;44.20;95426.13;4952731;28;20051;-71
2022/03/04 06:55:26;;;;;;;36.97;18.02;;;;;;;2.21;44.28;95366.22;4952815;28;20047;-72
2022/03/04 06:57:54;;;;;;;35.15;18.30;;;;;;;2.60;43.95;95413.34;4951730;28;20074;-73
2022/03/04 07:00:19;;;;;;;34.88;18.83;;;;;;;2.63;43.98;95404.19;4951877;29;20031;-74
2022/03/04 07:02:45;;;;;;;28.35;17.25;;;;;;;2.76;43.84;95417.72;4951398;29;20511;-72
2022/03/04 07:05:10;;;;;;;39.60;18.58;;;;;;;2.69;43.58;95406.63;4952763;28;20028;-71
2022/03/04 07:07:36;;;;;;;37.00;18.20;;;;;;;3.03;42.94;95428.25;4951618;28;20027;-70
2022/03/04 07:10:03;;;;;;;29.63;16.95;;;;;;;2.94;41.59;95400.03;4952537;28;20114;-70
2022/03/04 07:12:29;;;;;;;33.22;17.17;;;;;;;3.26;40.66;95423.69;4952336;28;20407;-71
2022/03/04 07:14:54;;;;;;;30.85;17.17;;;;;;;3.07;39.15;95403.06;4951004;29;20019;-70
2022/03/04 07:17:20;;;;;;;31.55;17.65;;;;;;;3.19;39.17;95396.84;4952195;28;20034;-70
2022/03/04 07:19:45;;;;;;;31.35;18.00;;;;;;;3.67;38.99;95431.88;4952461;29;20095;-71
2022/03/04 07:22:11;;;;;;;41.40;17.73;;;;;;;3.49;38.16;95412.84;4952276;29;20412;-70
2022/03/04 07:24:36;;;;;;;32.25;16.83;;;;;;;3.89;38.10;95428.09;4950981;29;20034;-70
2022/03/04 07:27:02;;;;;;;26.88;16.90;;;;;;;3.62;37.41;95420.28;4952351;28;20109;-70
2022/03/04 07:29:28;;;;;;;33.88;17.77;;;;;;;3.85;37.12;95416.50;4952068;28;20030;-69
2022/03/04 07:31:54;;;;;;;33.47;18.15;;;;;;;3.91;36.64;95425.22;4950805;28;20020;-70
2022/03/04 07:34:21;;;;;;;28.88;16.55;;;;;;;4.05;36.47;95434.25;4953267;28;20113;-70
2022/03/04 07:36:46;;;;;;;29.83;17.58;;;;;;;4.09;39.71;95445.81;4956396;28;20035;-71
2022/03/04 07:39:12;;;;;;;32.65;17.63;;;;;;;4.42;37.55;95449.97;4955955;28;20039;-70
2022/03/04 07:41:39;;;;;;;34.95;17.48;;;;;;;4.59;37.58;95439.22;4956056;28;20031;-68
2022/03/04 07:44:05;;;;;;;30.05;18.20;;;;;;;4.88;35.43;95449.31;4956294;28;20067;-68
2022/03/04 07:46:31;;;;;;;30.55;18.08;;;;;;;4.49;34.73;95386.50;4955472;28;20463;-68
2022/03/04 07:48:57;;;;;;;27.58;18.05;;;;;;;4.99;34.04;95450.13;4955773;28;20027;-66
2022/03/04 07:51:22;;;;;;;34.22;17.73;;;;;;;5.08;33.93;95454.63;4955550;28;20062;-67
2022/03/04 07:53:48;;;;;;;30.25;17.35;;;;;;;5.18;34.11;95444.09;4955662;28;20110;-67
2022/03/04 07:56:14;;;;;;;31.25;16.75;;;;;;;5.06;33.51;95461.22;4956086;28;20042;-74
2022/03/04 07:58:39;;;;;;;30.63;17.23;;;;;;;5.07;34.16;95455.69;4956164;28;20058;-76
2022/03/04 08:01:06;;;;;;;33.63;17.17;;;;;;;5.01;33.63;95408.47;4955526;28;20034;-67
2022/03/04 08:03:31;;;;;;;29.33;16.60;;;;;;;5.31;32.23;95429.59;4955678;28;20110;-72
2022/03/04 08:05:57;;;;;;;31.35;16.90;;;;;;;5.72;32.02;95453.34;4955936;28;20107;-67
2022/03/04 08:08:22;;;;;;;26.77;16.83;;;;;;;5.71;31.47;95465.75;4955492;28;20031;-67
2022/03/04 08:10:48;;;;;;;26.50;16.48;;;;;;;5.42;31.71;95448.84;4955019;28;20074;-67
2022/03/04 08:13:13;;;;;;;30.08;17.08;;;;;;;5.49;31.63;95462.59;4955680;28;20039;-68
2022/03/04 08:15:39;;;;;;;28.20;16.98;;;;;;;5.32;31.34;95462.81;4954051;28;20035;-68
2022/03/04 08:18:04;;;;;;;28.17;16.85;;;;;;;5.31;31.41;95449.91;4955328;28;20038;-67
2022/03/04 08:20:31;;;;;;;30.15;16.75;;;;;;;5.31;31.80;95447.28;4955035;28;20062;-68
2022/03/04 08:22:57;;;;;;;32.20;17.35;;;;;;;5.38;32.07;95474.22;4955407;29;20388;-68
2022/03/04 08:25:22;;;;;;;24.80;16.65;;;;;;;5.08;31.44;95430.13;4955416;29;20039;-69
2022/03/04 08:27:48;;;;;;;32.75;17.45;;;;;;;5.55;31.56;95460.75;4955381;28;20031;-69
2022/03/04 08:30:14;;;;;;;29.65;17.30;;;;;;;5.23;31.65;95461.78;4954664;28;20035;-69
2022/03/04 08:32:40;;;;;;;28.85;16.83;;;;;;;4.76;32.48;95469.81;4955050;28;20492;-68
2022/03/04 08:35:06;;;;;;;24.70;15.68;;;;;;;5.25;31.91;95472.06;4955122;28;20110;-66
2022/03/04 08:37:31;;;;;;;28.38;16.13;;;;;;;4.86;32.00;95477.75;4955240;28;20366;-67
2022/03/04 08:39:57;;;;;;;32.03;17.80;;;;;;;5.66;31.26;95473.66;4954892;28;20031;-68
2022/03/04 08:42:23;;;;;;;25.65;16.75;;;;;;;5.59;31.18;95472.38;4955066;28;20027;-68
2022/03/04 08:44:49;;;;;;;27.65;17.27;;;;;;;5.49;31.08;95452.03;4953471;28;20039;-68
2022/03/04 08:47:14;;;;;;;33.83;17.38;;;;;;;5.58;30.71;95473.41;4953782;28;20043;-68
2022/03/04 08:49:40;;;;;;;24.50;16.90;;;;;;;5.27;31.70;95475.22;4954790;28;20531;-68
2022/03/04 08:52:06;;;;;;;31.90;17.00;;;;;;;5.39;31.55;95484.50;4954947;28;20035;-69
2022/03/04 08:54:32;;;;;;;32.60;18.25;;;;;;;5.57;31.62;95491.09;4955013;28;20066;-69
2022/03/04 08:56:57;;;;;;;31.83;18.80;;;;;;;5.80;31.63;95471.31;4954729;28;20047;-68
2022/03/04 08:59:22;;;;;;;31.50;17.60;;;;;;;5.61;31.16;95428.81;4953223;28;20078;-69
2022/03/04 09:01:48;;;;;;;32.35;18.00;;;;;;;5.52;31.80;95491.06;4953930;28;20031;-68
2022/03/04 09:04:17;;;;;;;30.38;18.13;;;;;;;5.33;32.14;95479.47;4954752;28;20028;-68
2022/03/04 09:06:42;;;;;;;28.45;17.92;;;;;;;5.69;31.52;95467.88;4953413;28;20027;-68
2022/03/04 09:09:08;;;;;;;30.58;18.08;;;;;;;5.92;31.35;95487.69;4953215;29;20089;-68
2022/03/04 09:11:33;;;;;;;30.58;17.48;;;;;;;5.55;31.47;95432.50;4954414;28;20147;-68
2022/03/04 09:13:58;;;;;;;32.45;18.25;;;;;;;5.86;31.62;95480.78;4953252;29;20066;-69
2022/03/04 09:16:24;;;;;;;29.73;19.17;;;;;;;6.04;30.58;95461.03;4953973;28;20031;-69
2022/03/04 09:18:49;;;;;;;29.40;17.08;;;;;;;6.06;30.64;95474.72;4952632;28;20464;-69
2022/03/04 09:21:14;;;;;;;28.73;18.23;;;;;;;6.12;30.46;95468.38;4954541;28;20027;-70
2022/03/04 09:23:40;;;;;;;31.50;18.30;;;;;;;6.16;30.70;95473.94;4953030;29;20046;-68
2022/03/04 09:26:05;;;;;;;38.72;18.13;;;;;;;6.37;30.57;95467.53;4953222;29;20074;-69
2022/03/04 09:28:31;;;;;;;31.88;18.55;;;;;;;6.32;30.48;95474.69;4953827;28;20083;-69
2022/03/04 09:30:57;;;;;;;30.35;18.17;;;;;;;6.41;30.63;95457.22;4953534;28;20031;-70
2022/03/04 09:33:22;;;;;;;31.38;17.88;;;;;;;6.83;29.74;95477.16;4953813;28;20031;-69
2022/03/04 09:35:47;;;;;;;26.25;17.15;;;;;;;6.10;30.82;95459.16;4953738;29;20066;-68
2022/03/04 09:38:13;;;;;;;33.15;17.58;;;;;;;6.73;30.23;95470.84;4953998;28;20031;-68
2022/03/04 09:40:38;;;;;;;33.90;17.15;;;;;;;7.00;29.86;95453.78;4953736;29;20034;-68
2022/03/04 09:43:06;;;;;;;29.60;17.25;;;;;;;6.78;30.21;95475.31;4954193;28;20034;-68
2022/03/04 09:45:32;;;;;;;25.73;16.15;;;;;;;6.84;30.31;95461.00;4952499;29;20023;-68
2022/03/04 09:47:57;;;;;;;25.83;17.52;;;;;;;6.80;29.72;95473.19;4953839;28;20024;-69
2022/03/04 09:50:26;;;;;;;27.73;16.70;;;;;;;6.78;29.59;95454.16;4952084;29;20119;-69
2022/03/04 09:52:52;;;;;;;26.55;17.58;;;;;;;7.05;29.81;95469.63;4953931;28;20117;-67
2022/03/04 09:55:17;;;;;;;29.67;17.95;;;;;;;7.20;29.47;95453.66;4953924;28;20106;-67
2022/03/04 09:57:42;;;;;;;31.98;18.58;;;;;;;7.48;29.61;95464.59;4953575;28;20102;-68
2022/03/04 10:00:11;;;;;;;29.33;17.63;;;;;;;7.37;30.15;95457.78;4953310;29;20077;-68
2022/03/04 10:02:37;;;;;;;26.75;17.92;;;;;;;7.08;29.33;95444.50;4953859;28;20118;-68
2022/03/04 10:05:03;;;;;;;30.05;18.55;;;;;;;7.03;30.03;95446.09;4953781;28;20512;-68
2022/03/04 10:07:41;;;;;;;29.88;17.88;;;;;;;7.09;29.55;95440.78;4952496;28;20391;-68
2022/03/04 10:10:15;;;;;;;34.05;18.70;;;;;;;7.32;29.76;95460.47;4953367;28;20031;-69
2022/03/04 10:12:49;;;;;;;32.80;18.85;;;;;;;7.18;30.50;95455.81;4952197;29;20027;-67
2022/03/04 10:15:16;;;;;;;28.25;18.27;;;;;;;6.99;30.53;95431.06;4953295;28;20491;-68
2022/03/04 10:17:58;;;;;;;30.25;18.35;;;;;;;7.82;29.58;95456.66;4952070;28;20027;-68
2022/03/04 10:20:34;;;;;;;30.77;18.38;;;;;;;7.86;29.41;95443.66;4953632;28;20036;-68
2022/03/04 10:23:18;;;;;;;29.15;18.20;;;;;;;7.75;29.25;95449.03;4953731;28;20480;-68
2022/03/04 10:25:46;;;;;;;34.90;19.17;;;;;;;7.83;28.73;95429.13;4953769;28;20549;-69
2022/03/04 10:28:13;;;;;;;28.80;18.10;;;;;;;7.79;29.29;95449.28;4953595;28;20026;-68
2022/03/04 10:30:43;;;;;;;30.35;19.30;;;;;;;7.75;29.54;95417.25;4951360;29;20054;-68
2022/03/04 10:33:10;;;;;;;31.40;17.90;;;;;;;7.80;28.85;95451.63;4952014;28;20106;-69
2022/03/04 10:35:37;;;;;;;30.65;19.42;;;;;;;7.99;28.62;95438.50;4953376;28;20078;-68
2022/03/04 10:38:04;;;;;;;29.20;18.38;;;;;;;8.28;28.79;95448.25;4953246;28;20029;-69
2022/03/04 10:40:44;;;;;;;28.67;16.90;;;;;;;7.42;28.41;95436.56;4951763;29;20039;-68
2022/03/04 10:43:11;;;;;;;27.05;17.73;;;;;;;7.35;28.62;95442.19;4952068;29;20573;-70
2022/03/04 10:45:36;;;;;;;29.80;16.67;;;;;;;7.68;28.30;95450.44;4951547;28;20484;-68
2022/03/04 10:48:08;;;;;;;28.70;17.42;;;;;;;7.83;27.97;95439.72;4953038;28;20034;-67
2022/03/04 10:50:48;;;;;;;27.23;18.27;;;;;;;8.33;27.88;95440.25;4955545;28;20168;-73
2022/03/04 10:53:23;;;;;;;27.13;17.52;;;;;;;8.73;27.17;95440.88;4953342;28;20031;-71
2022/03/04 10:55:50;;;;;;;30.38;17.92;;;;;;;8.76;26.88;95443.00;4951983;29;20102;-70
2022/03/04 10:58:17;;;;;;;32.40;18.75;;;;;;;8.87;27.12;95443.66;4951350;28;20027;-70
2022/03/04 11:00:45;;;;;;;28.10;15.95;;;;;;;7.26;28.57;95412.88;4952241;28;20043;-70
2022/03/04 11:03:22;;;;;;;30.65;17.73;;;;;;;7.99;28.11;95438.50;4952857;28;20023;-68
2022/03/04 11:05:49;;;;;;;25.95;17.30;;;;;;;8.13;27.14;95437.81;4953238;28;20024;-70
2022/03/04 11:08:16;;;;;;;23.70;15.57;;;;;;;7.57;27.45;95431.16;4951464;28;20051;-68
2022/03/04 11:10:42;;;;;;;25.63;16.55;;;;;;;7.46;27.55;95397.91;4952135;28;20473;-69
2022/03/04 11:13:09;;;;;;;26.65;16.08;;;;;;;8.04;27.50;95429.72;4951727;28;20023;-71
2022/03/04 11:15:36;;;;;;;25.15;16.42;;;;;;;8.36;26.60;95434.44;4952588;28;20071;-70
2022/03/04 11:18:14;;;;;;;22.38;16.08;;;;;;;7.92;26.67;95402.78;4952928;28;20015;-70
2022/03/04 11:20:42;;;;;;;24.75;16.17;;;;;;;7.75;27.66;95427.06;4952543;28;20046;-69